Detall de PIREP

Printer-friendly versionPDF version

[2011/08/12 11:47:00]
Flight IATA:CT1004
Pilot Number:042
Company ICAO:CAT
Aircraft Type:B744/E
PAX:300
Departing Airport: LEBL
Destination Airport: TNCM
Alternate Airport:SVMG
Online: VATSIM
Route:SENIA UW96 NEXAS UN975 ADUXO UN975 MELON UN975 ELVAR DCT EXONA DCT BUSEN DCT LUTAK 3521N 3427N 3232N 3038N 2843N 2648N 2353N 2158N PJM
Flight Level:F330
No Slew and time accel
No pause
Crash detect
Detect pilot in Cockpit between each 30 and 45 minutes
11:47 Zero fuel Weight: 466688 Lbs, Fuel Weight: 382939 Lbs
11:47 VATSIM:LEBL 121130Z 21013KT 170V230 CAVOK 26/20 Q1016 NOSIG
11:47 VATSIM:TNCM 121100Z 08007KT 9999 FEW016TCU 28/24 Q1015
11:47 VOICE CATALONIAN/SUMMER CHARTER
11:51 Parking Brakes off
12:00 Take-off
12:00 Take off Weight: 846608 Lbs
12:00 Wind: 202 @ 013 Knots Heading: 243
12:00 POS N41 17 01 E002 04 44
12:00 Gear Up: 195 Knots
12:00 Flaps:4 at 195 Knots
12:00 Flaps:3 at 197 Knots
12:02 Flaps:2 at 221 Knots
12:02 Flaps:1 at 240 Knots
12:03 Flaps:0 at 254 Knots
12:15 Wind:277@020 Knots Heading: 270 Ground Speed: 460 Knots Altitude 24678 ft
12:30 Wind:202@022 Knots Heading: 247 Ground Speed: 542 Knots Altitude 30314 ft
12:38 TOC
12:38 Fuel Weight: 350628 Lb
12:45 Wind:152@018 Knots Heading: 252 Ground Speed: 471 Knots Altitude 33080 ft
12:58 TOD
12:58 Fuel Weight: 341173 Lb
13:00 Wind:038@031 Knots Heading: 244 Ground Speed: 504 Knots Altitude 30820 ft
13:15 Wind:355@018 Knots Heading: 258 Ground Speed: 510 Knots Altitude 30209 ft
13:18 TOC
13:18 Fuel Weight: 331103 Lb
13:30 Wind:313@013 Knots Heading: 250 Ground Speed: 511 Knots Altitude 34019 ft
13:45 Wind:313@014 Knots Heading: 248 Ground Speed: 511 Knots Altitude 34051 ft
14:00 Wind:287@014 Knots Heading: 248 Ground Speed: 505 KnotsAltitude 34137 ft
14:15 Wind:287@014 Knots Heading: 247 Ground Speed: 504 Knots Altitude 34206 ft
14:30 Wind:332@023 Knots Heading: 262 Ground Speed: 507 Knots Altitude 34274 ft
14:45 Wind:332@023 Knots Heading: 260 Ground Speed: 508 Knots Altitude 34311 ft
15:00 Wind:315@019 Knots Heading: 247 Ground Speed: 508 Knots Altitude 34311 ft
15:15 Wind:313@016 Knots Heading: 246 Ground Speed: 509 Knots Altitude 34291 ft
15:30 Wind:289@012 Knots Heading: 244 Ground Speed: 503 Knots Altitude 36279 ft
16:45 Wind:095@010 Knots Heading: 243 Ground Speed: 525 Knots Altitude 38139 ft
17:00 Wind:090@010 Knots Heading: 245 Ground Speed: 528 Knots Altitude 38126 ft
17:15 Wind:149@016 Knots Heading: 243 Ground Speed: 522 Knots Altitude 38047 ft
17:30 Wind:149@016 Knots Heading: 235 Ground Speed: 517 Knots Altitude 38044 ft
17:45 Wind:133@019 Knots Heading: 234Ground Speed: 523 Knots Altitude 38031 ft
18:00 Wind:139@018 Knots Heading: 245 Ground Speed: 524 Knots Altitude 38031 ft
18:15 Wind:129@008 Knots Heading: 245 Ground Speed: 525 Knots Altitude 38021 ft
18:30 Wind:116@024 Knots Heading: 243 Ground Speed: 534 Knots Altitude 38018 ft
18:45 Wind:085@049 Knots Heading: 237 Ground Speed: 549 Knots Altitude 38021 ft
18:58 TOD
18:58 Fuel Weight: 185637 Lb
19:00 Wind:095@020 Knots Heading: 237 Ground Speed: 420 Knots Altitude 29238 ft
19:10 Flaps:1 at 233 Knots
19:10 Flaps:2 at 221 Knots
19:15 Wind:067@007 Knots Heading: 169 Ground Speed: 202 Knots Altitude 3474 ft
19:15 Flaps:3 at 189 Knots
19:16 Gear Down: 175 Knots
19:16 Flaps:4 at 175 Knots
19:16 Flaps:5 at 168 Knots
19:19 TouchDown:Rate -604 ft/min Speed: 159 Knots
19:20 VATSIM:TNCM 121800Z 05007KT 9999 FEW028 31/23 Q1014
19:20 Land
19:20 Wind:062@007 Knots
19:20 Heading: 097
19:20 Flight Duration: 07:20
19:20 Landing Weight: 648502 Lbs
19:20 POS N18 02 31 W063 06 05
19:24 Parking brakes on
19:24 Block to Block Duration: 07:33
19:24 Final Fuel: 180736 Lbls
19:24 Spent Fuel: 202202 Lbls
19:24 Flight Length: 3121 NM
19:24 TOD Land Length: 99 NM

Exportar CSV

Powered by Drupal - Modified by Danger4k